Belgrade, MT (59714)

4:37 PM MDT on April 26, 2015 (GMT -0600)
Vista Meadows | | Change Station
CLOSE
Current Station
Personal Weather Station
Location: Belgrade, MT
Elevation: 4386 ft
Nearby Weather Stations

Elev 4386 ft 45.80 °N, 111.21 °W | Updated 15 seconds ago

Light Rain
Light Rain Mist
40.8 °F
Feels Like 33 °F
N
13.4
Wind Variable Wind from SW
Gusts 15.0 mph

Today
High -- | Low -- °F
--% Chance of Precip.
Yesterday
High -- | Low -- °F
Precip. -- in
6:20 AM 8:25 PM
First Quarter, 59% visible
Pressure 30.14 in
Visibility 3.0 miles
Clouds Few 1200 ft
Mostly Cloudy 2000 ft
Overcast 3600 ft
Windchill 33 °F
Dew Point 38 °F
Humidity 90%
Rainfall 0.14 in
Snow Depth Not available.
UV 1.0 out of 12
Pollen 1.80 out of 12
Air Quality Not available.
Flu Activity Local Activity
METAR KBZN 262156Z 24011KT 3SM -RA BR FEW012 BKN020 OVC036 04/03 A3010 RMK AO2 SLP204 P0006 T00440028

More Conditions Fewer Conditions

Pressure 30.14 in
Visibility 3.0 miles
Clouds Few 1200 ft
Mostly Cloudy 2000 ft
Overcast 3600 ft
Windchill 33 °F
Dew Point 38 °F
Humidity 90%
Rainfall 0.14 in
Snow Depth Not available.
UV 1.0 out of 12
Pollen 1.80 out of 12
Air Quality Not available.
Flu Activity Local Activity
METAR KBZN 262156Z 24011KT 3SM -RA BR FEW012 BKN020 OVC036 04/03 A3010 RMK AO2 SLP204 P0006 T00440028

More Conditions Fewer Conditions

The full scope of the disaster following a powerful 7.8-magnitude earthquake in Nepal may not come into view for days, but global charities are already sending emergency aid. Click to see how you can help.

10-Day Weather Forecast

Almanac

Astronomy

Apr. 26, 2015 Rise Set
Actual Time
Civil Twilight
Nautical Twilight
Astronomical Twilight
Moon
Length of Visible Light
Length of Day
Tomorrow will be .
, % of the Moon is Illuminated

Today's Extremes

State Highs State Lows

Community

WunderPhotos

Upload Photos

1,817,149 photos uploaded!

WunderBlogs® & News

Nearby

Air Quality

  Air Quality AQ Index Pollutant
Not available.

Snow Depth

Station Depth Elevation

Earthquake Activity

City Distance Mag. Time & Date
Minimum magnitude displayed is 2.5.

Coastal Water Temperatures

Place Temperature

Stations

Nearby Weather Stations

Station Location Temp. Windchill Dew Point Humidity Wind Precip. Elev Updated Type